Time;durP1;ratioP1;P1;durP2;ratioP2;P2;SDS_P1;SDS_P2;PMS_P1;PMS_P2;Temp;Humidity;BMP_temperature;BMP_pressure;BME280_temperature;BME280_humidity;BME280_pressure;Samples;Min_cycle;Max_cycle;Signal;HPM_P1;HPM_P2
2022/01/09 00:01:04;;;;;;;;;;;;;;;20.81;30.76;93986.13;10353166;28;1827;-42
2022/01/09 00:06:05;;;;;;;;;;;;;;;20.82;30.70;93974.50;10369683;28;1830;-41
2022/01/09 00:11:05;;;;;;;;;;;;;;;20.83;30.49;93973.44;10354027;28;1946;-39
2022/01/09 00:16:06;;;;;;;;;;;;;;;20.82;30.06;93979.00;10354985;28;1923;-40
2022/01/09 00:21:06;;;;;;;;;;;;;;;20.82;30.02;93960.56;10355317;28;1870;-41
2022/01/09 00:26:08;;;;;;;;;;;;;;;20.81;30.07;93949.25;10354446;28;1851;-42
2022/01/09 00:31:08;;;;;;;;;;;;;;;20.80;30.17;93931.91;10348903;28;1897;-39
2022/01/09 00:36:08;;;;;;;;;;;;;;;20.78;29.97;93947.25;10356218;28;1915;-42
2022/01/09 00:41:09;;;;;;;;;;;;;;;20.76;29.70;93949.44;10346257;28;1843;-40
2022/01/09 00:46:09;;;;;;;;;;;;;;;20.78;29.79;93949.91;10351658;28;2163;-46
2022/01/09 00:51:10;;;;;;;;;;;;;;;20.78;29.58;93928.06;10349742;28;1842;-41
2022/01/09 00:56:10;;;;;;;;;;;;;;;20.77;29.76;93927.28;10351043;28;1910;-40
2022/01/09 01:01:11;;;;;;;;;;;;;;;20.76;29.87;93909.16;10343004;28;1995;-39
2022/01/09 01:06:13;;;;;;;;;;;;;;;20.77;29.60;93911.47;10355427;28;1803;-42
2022/01/09 01:11:13;;;;;;;;;;;;;;;20.78;29.48;93893.81;10351102;28;1809;-39
2022/01/09 01:16:13;;;;;;;;;;;;;;;20.75;29.67;93895.22;10347170;28;1973;-44
2022/01/09 01:21:14;;;;;;;;;;;;;;;20.77;29.32;93884.38;10350711;28;1836;-44
2022/01/09 01:26:14;;;;;;;;;;;;;;;20.76;29.65;93888.88;10350441;28;1819;-43
2022/01/09 01:31:14;;;;;;;;;;;;;;;20.74;29.62;93891.06;10344805;28;1758;-42
2022/01/09 01:36:15;;;;;;;;;;;;;;;20.73;29.60;93901.91;10349914;28;1915;-40
2022/01/09 01:41:15;;;;;;;;;;;;;;;20.74;29.62;93927.91;10342381;28;2181;-40
2022/01/09 01:46:16;;;;;;;;;;;;;;;20.73;29.34;93865.81;10348607;28;1863;-39
2022/01/09 01:51:18;;;;;;;;;;;;;;;20.76;29.23;93846.75;10344927;28;1891;-42
2022/01/09 01:56:20;;;;;;;;;;;;;;;20.73;29.35;93865.81;10348089;28;1914;-40
2022/01/09 02:01:20;;;;;;;;;;;;;;;20.72;29.27;93874.81;10343349;28;1840;-41
2022/01/09 02:06:21;;;;;;;;;;;;;;;20.73;29.22;93889.50;10353334;28;2236;-46
2022/01/09 02:11:22;;;;;;;;;;;;;;;20.73;29.39;93894.78;10351933;28;1983;-41
2022/01/09 02:16:23;;;;;;;;;;;;;;;20.71;29.12;93902.22;10347080;28;1989;-43
2022/01/09 02:21:26;;;;;;;;;;;;;;;20.72;29.04;93895.09;10350878;28;1958;-40
2022/01/09 02:26:26;;;;;;;;;;;;;;;20.70;29.11;93879.63;10357377;28;1912;-39
2022/01/09 02:31:27;;;;;;;;;;;;;;;20.71;29.19;93856.72;10351482;28;1989;-44
2022/01/09 02:36:27;;;;;;;;;;;;;;;20.70;29.14;93850.66;10357073;28;2150;-44
2022/01/09 02:41:28;;;;;;;;;;;;;;;20.70;29.06;93842.75;10350858;28;1962;-42
2022/01/09 02:51:31;;;;;;;;;;;;;;;20.69;29.13;93841.22;10353141;28;1904;-42
2022/01/09 02:56:32;;;;;;;;;;;;;;;20.68;28.85;93844.16;10356617;28;1985;-40
2022/01/09 03:01:32;;;;;;;;;;;;;;;20.67;29.03;93822.31;10350517;28;1985;-40
2022/01/09 03:06:33;;;;;;;;;;;;;;;20.67;29.16;93827.59;10349687;28;2302;-41
2022/01/09 03:11:36;;;;;;;;;;;;;;;20.70;28.85;93815.66;10357291;28;1997;-44
2022/01/09 03:16:36;;;;;;;;;;;;;;;20.68;28.88;93802.81;10367176;28;2025;-40
2022/01/09 03:21:36;;;;;;;;;;;;;;;20.69;28.88;93782.53;10365602;28;2438;-42
2022/01/09 03:26:37;;;;;;;;;;;;;;;20.70;28.73;93786.69;10354947;28;1902;-40
2022/01/09 03:31:37;;;;;;;;;;;;;;;20.69;28.91;93778.03;10364516;28;2013;-42
2022/01/09 03:36:38;;;;;;;;;;;;;;;20.70;28.83;93757.75;10355923;28;1998;-44
2022/01/09 03:41:38;;;;;;;;;;;;;;;20.69;28.91;93766.75;10346064;28;2055;-40
2022/01/09 03:46:39;;;;;;;;;;;;;;;20.70;28.92;93763.78;10355274;28;1892;-46
2022/01/09 03:51:41;;;;;;;;;;;;;;;20.70;28.59;93758.50;10346125;28;2178;-44
2022/01/09 03:56:41;;;;;;;;;;;;;;;20.69;28.97;93754.31;10356574;28;1918;-44
2022/01/09 04:01:42;;;;;;;;;;;;;;;20.68;28.78;93750.16;10347294;28;1977;-44
2022/01/09 04:06:46;;;;;;;;;;;;;;;20.68;28.75;93765.19;10349123;28;1910;-43
2022/01/09 04:11:48;;;;;;;;;;;;;;;20.68;28.66;93760.69;10351946;28;1963;-42
2022/01/09 04:16:49;;;;;;;;;;;;;;;20.67;28.81;93774.19;10338603;28;1939;-46
2022/01/09 04:21:49;;;;;;;;;;;;;;;20.67;28.92;93774.94;10350705;28;1923;-40
2022/01/09 04:26:49;;;;;;;;;;;;;;;20.66;28.73;93776.03;10351683;28;2148;-42
2022/01/09 04:31:50;;;;;;;;;;;;;;;20.66;28.83;93775.28;10351817;28;1958;-44
2022/01/09 04:36:50;;;;;;;;;;;;;;;20.65;28.86;93779.75;10354805;28;2038;-45
2022/01/09 04:41:51;;;;;;;;;;;;;;;20.68;28.67;93780.97;10348335;28;1978;-48
2022/01/09 04:47:03;;;;;;;;;;;;;;;20.67;28.65;93779.47;10353713;28;2018;-46
2022/01/09 04:52:05;;;;;;;;;;;;;;;20.66;28.85;93767.38;10360625;28;1927;-41
2022/01/09 04:57:06;;;;;;;;;;;;;;;20.66;28.81;93770.00;10359141;28;1980;-39
2022/01/09 05:02:06;;;;;;;;;;;;;;;20.65;28.63;93771.13;10349000;28;2008;-40
2022/01/09 05:07:07;;;;;;;;;;;;;;;20.67;28.63;93790.00;10351990;28;1965;-41
2022/01/09 05:12:08;;;;;;;;;;;;;;;20.65;28.81;93795.56;10349575;28;1902;-44
2022/01/09 05:17:08;;;;;;;;;;;;;;;20.64;28.66;93791.38;10348172;28;1934;-41
2022/01/09 05:22:09;;;;;;;;;;;;;;;20.63;28.75;93795.09;10349758;28;1993;-38
2022/01/09 05:27:10;;;;;;;;;;;;;;;20.67;28.53;93809.16;10355698;28;2006;-44
2022/01/09 05:32:10;;;;;;;;;;;;;;;20.67;28.38;93801.25;10352060;28;2056;-41
2022/01/09 05:37:11;;;;;;;;;;;;;;;20.63;28.32;93800.38;10354866;28;2102;-44
2022/01/09 05:42:12;;;;;;;;;;;;;;;20.64;28.14;93807.19;10350384;28;1989;-39
2022/01/09 05:47:12;;;;;;;;;;;;;;;20.62;28.40;93808.59;10355989;28;1985;-40
2022/01/09 05:52:13;;;;;;;;;;;;;;;20.62;28.43;93806.75;10349383;28;2024;-43
2022/01/09 05:57:13;;;;;;;;;;;;;;;20.62;28.37;93817.28;10359389;28;2050;-40
2022/01/09 06:02:14;;;;;;;;;;;;;;;20.62;28.48;93821.75;10352835;28;2018;-43
2022/01/09 06:07:14;;;;;;;;;;;;;;;20.64;28.33;93827.47;10359313;28;1920;-39
2022/01/09 06:12:15;;;;;;;;;;;;;;;20.62;28.46;93827.78;10357430;28;1966;-41
2022/01/09 06:17:15;;;;;;;;;;;;;;;20.61;28.37;93830.75;10356988;28;2342;-40
2022/01/09 06:22:18;;;;;;;;;;;;;;;20.59;28.28;93828.41;10360804;28;1952;-43
2022/01/09 06:27:18;;;;;;;;;;;;;;;20.55;27.78;93824.88;10360390;28;1906;-44
2022/01/09 06:32:19;;;;;;;;;;;;;;;20.58;28.13;93829.53;10351242;28;1973;-44
2022/01/09 06:37:19;;;;;;;;;;;;;;;20.57;27.80;93837.72;10353123;28;1957;-47
2022/01/09 06:42:19;;;;;;;;;;;;;;;20.58;27.82;93844.53;10350743;28;1893;-40
2022/01/09 06:47:20;;;;;;;;;;;;;;;20.52;27.56;93856.34;10357447;28;2075;-42
2022/01/09 06:52:20;;;;;;;;;;;;;;;20.55;27.90;93863.59;10356077;28;1981;-45
2022/01/09 06:57:21;;;;;;;;;;;;;;;20.51;27.18;93878.47;10358920;28;1914;-43
2022/01/09 07:02:21;;;;;;;;;;;;;;;20.52;27.08;93890.56;10368760;28;1934;-45
2022/01/09 07:07:21;;;;;;;;;;;;;;;20.54;27.94;93904.94;10365724;28;1918;-44
2022/01/09 07:12:22;;;;;;;;;;;;;;;20.50;27.51;93905.91;10358740;28;1895;-42
2022/01/09 07:17:22;;;;;;;;;;;;;;;20.50;27.70;93932.22;10352962;28;1938;-42
2022/01/09 07:22:23;;;;;;;;;;;;;;;20.55;27.81;93939.91;10352059;28;1949;-44
2022/01/09 07:27:23;;;;;;;;;;;;;;;20.49;27.51;93957.75;10358842;28;2438;-44
2022/01/09 07:32:23;;;;;;;;;;;;;;;20.50;27.51;93983.00;10353483;28;1891;-45
2022/01/09 07:37:25;;;;;;;;;;;;;;;20.47;27.34;94007.31;10353084;28;1974;-47
2022/01/09 07:42:26;;;;;;;;;;;;;;;20.53;27.48;94010.53;10354841;28;1923;-48
2022/01/09 07:47:26;;;;;;;;;;;;;;;20.51;27.74;94015.34;10356541;28;1871;-42
2022/01/09 07:52:27;;;;;;;;;;;;;;;20.51;27.24;94033.75;10333079;28;1965;-44
2022/01/09 07:57:27;;;;;;;;;;;;;;;20.49;27.92;94041.97;10363855;28;1981;-42
2022/01/09 08:02:27;;;;;;;;;;;;;;;20.47;28.01;94052.06;10348389;28;1411;-39
2022/01/09 08:07:28;;;;;;;;;;;;;;;20.52;28.15;94066.91;10363418;28;2102;-40
2022/01/09 08:12:29;;;;;;;;;;;;;;;20.53;28.08;94068.44;10347321;28;1918;-41
2022/01/09 08:17:29;;;;;;;;;;;;;;;20.54;27.95;94081.31;10349534;28;2104;-44
2022/01/09 08:22:30;;;;;;;;;;;;;;;20.55;28.33;94097.84;10351423;28;1914;-40
2022/01/09 08:27:31;;;;;;;;;;;;;;;20.51;28.49;94100.34;10351977;28;2035;-41
2022/01/09 08:32:31;;;;;;;;;;;;;;;20.40;27.99;94111.53;10352104;28;1840;-46
2022/01/09 08:37:32;;;;;;;;;;;;;;;20.38;27.79;94132.88;10350611;28;1910;-45
2022/01/09 08:42:33;;;;;;;;;;;;;;;20.39;27.51;94136.28;10347887;28;2055;-41
2022/01/09 08:47:38;;;;;;;;;;;;;;;20.39;27.67;94142.31;10340659;28;1935;-44
2022/01/09 08:52:38;;;;;;;;;;;;;;;20.43;27.68;94145.09;10349032;28;1926;-39
2022/01/09 08:57:39;;;;;;;;;;;;;;;20.50;28.74;94163.84;10349790;28;1977;-41
2022/01/09 09:02:41;;;;;;;;;;;;;;;20.55;28.82;94163.66;10362563;28;1988;-43
2022/01/09 09:07:41;;;;;;;;;;;;;;;20.60;30.09;94168.78;10346694;28;1981;-39
2022/01/09 09:12:42;;;;;;;;;;;;;;;20.57;29.79;94185.97;10351048;28;1899;-40
2022/01/09 09:17:42;;;;;;;;;;;;;;;20.63;29.89;94190.00;10348591;28;1973;-43
2022/01/09 09:22:43;;;;;;;;;;;;;;;20.73;29.55;94194.94;10349861;28;2042;-40
2022/01/09 09:27:43;;;;;;;;;;;;;;;20.59;28.33;94204.88;10349032;28;1961;-39
2022/01/09 09:32:44;;;;;;;;;;;;;;;20.60;29.44;94222.22;10362044;28;2048;-42
2022/01/09 09:37:44;;;;;;;;;;;;;;;20.61;29.07;94221.13;10365774;28;2050;-44
2022/01/09 09:42:45;;;;;;;;;;;;;;;20.57;28.05;94235.22;10345186;28;2367;-41
2022/01/09 09:47:45;;;;;;;;;;;;;;;20.61;27.89;94249.31;10347344;28;2379;-41
2022/01/09 09:52:46;;;;;;;;;;;;;;;20.61;27.38;94255.34;10345964;28;1987;-40
2022/01/09 09:57:46;;;;;;;;;;;;;;;20.68;27.72;94260.94;10349112;28;2338;-40
2022/01/09 10:02:47;;;;;;;;;;;;;;;20.70;27.43;94271.16;10343024;28;2007;-41
2022/01/09 10:07:47;;;;;;;;;;;;;;;20.72;27.46;94280.31;10351603;28;2237;-39
2022/01/09 10:12:48;;;;;;;;;;;;;;;20.81;27.36;94280.31;10332716;28;2039;-42
2022/01/09 10:17:49;;;;;;;;;;;;;;;20.83;27.33;94288.66;10348151;28;2226;-42
2022/01/09 10:22:50;;;;;;;;;;;;;;;20.85;26.80;94284.66;10349527;28;1946;-42
2022/01/09 10:27:51;;;;;;;;;;;;;;;20.89;26.76;94290.06;10346472;28;1968;-43
2022/01/09 10:32:59;;;;;;;;;;;;;;;20.94;27.14;94295.94;10350158;28;1989;-41
2022/01/09 10:38:03;;;;;;;;;;;;;;;20.95;27.51;94297.50;10358512;28;2281;-40
2022/01/09 10:43:05;;;;;;;;;;;;;;;20.98;27.25;94307.41;10349827;28;1874;-39
2022/01/09 10:48:07;;;;;;;;;;;;;;;21.11;27.56;94299.69;10356355;28;1887;-43
2022/01/09 10:53:11;;;;;;;;;;;;;;;21.23;28.11;94297.97;10348471;28;1917;-44
2022/01/09 10:58:19;;;;;;;;;;;;;;;21.24;27.39;94294.25;10354801;28;1949;-44
2022/01/09 11:03:19;;;;;;;;;;;;;;;21.27;28.04;94306.03;10353753;28;1938;-42
2022/01/09 11:08:20;;;;;;;;;;;;;;;21.29;27.53;94309.16;10353160;28;1903;-43
2022/01/09 11:13:20;;;;;;;;;;;;;;;21.37;29.14;94308.34;10353323;28;1885;-41
2022/01/09 11:18:20;;;;;;;;;;;;;;;21.41;28.94;94315.31;10351912;28;1977;-39
2022/01/09 11:23:21;;;;;;;;;;;;;;;21.41;28.73;94315.31;10353266;28;1954;-41
2022/01/09 11:28:23;;;;;;;;;;;;;;;21.45;28.92;94315.47;10350867;28;1974;-40
2022/01/09 11:33:26;;;;;;;;;;;;;;;21.45;29.16;94323.38;10350547;28;1943;-46
2022/01/09 11:38:45;;;;;;;;;;;;;;;21.45;28.75;94323.38;10337463;28;1981;-44
2022/01/09 11:43:59;;;;;;;;;;;;;;;21.46;28.98;94324.91;10362647;28;1824;-44
2022/01/09 11:49:01;;;;;;;;;;;;;;;21.47;29.03;94335.16;10335401;28;1916;-45
2022/01/09 11:54:11;;;;;;;;;;;;;;;21.47;28.78;94342.31;10352356;28;1914;-48
2022/01/09 11:59:18;;;;;;;;;;;;;;;21.50;29.29;94345.06;10353134;28;1968;-49
2022/01/09 12:04:31;;;;;;;;;;;;;;;21.48;28.49;94341.19;10368361;28;1957;-49
2022/01/09 12:09:35;;;;;;;;;;;;;;;21.53;29.25;94339.19;10348685;28;1961;-43
2022/01/09 12:14:41;;;;;;;;;;;;;;;21.54;28.92;94343.38;10367661;28;1989;-43
2022/01/09 12:20:05;;;;;;;;;;;;;;;21.50;27.62;94357.47;10351197;28;2028;-47
2022/01/09 12:25:09;;;;;;;;;;;;;;;21.51;28.70;94356.41;10365458;28;1397;-47
2022/01/09 12:30:10;;;;;;;;;;;;;;;21.51;28.65;94341.38;10350903;28;2179;-46
2022/01/09 12:35:11;;;;;;;;;;;;;;;21.58;28.93;94349.56;10350817;28;1910;-46
2022/01/09 12:40:13;;;;;;;;;;;;;;;21.57;28.18;94352.53;10353183;28;1110;-48
2022/01/09 12:45:20;;;;;;;;;;;;;;;21.60;28.27;94359.78;10345175;28;1694;-49
2022/01/09 12:50:28;;;;;;;;;;;;;;;21.59;29.21;94368.81;10349161;28;1233;-45
2022/01/09 12:55:28;;;;;;;;;;;;;;;21.67;28.60;94373.28;10349805;28;1969;-47
2022/01/09 13:00:29;;;;;;;;;;;;;;;21.73;29.73;94367.53;10346802;28;1385;-45
2022/01/09 13:05:29;;;;;;;;;;;;;;;21.74;30.10;94382.25;10346571;28;1864;-43
2022/01/09 13:10:30;;;;;;;;;;;;;;;21.75;29.85;94386.47;10349251;28;1817;-44
2022/01/09 13:15:31;;;;;;;;;;;;;;;21.74;30.13;94382.25;10371350;28;1957;-42
2022/01/09 13:20:32;;;;;;;;;;;;;;;21.68;29.36;94386.16;10347213;28;1240;-42
2022/01/09 13:25:45;;;;;;;;;;;;;;;21.68;29.91;94385.38;10350007;28;1392;-46
2022/01/09 13:30:46;;;;;;;;;;;;;;;21.71;29.97;94387.38;10344862;28;1799;-48
2022/01/09 13:35:46;;;;;;;;;;;;;;;21.71;30.47;94400.59;10345008;28;1975;-44
2022/01/09 13:40:47;;;;;;;;;;;;;;;21.60;28.93;94413.31;10346484;28;1978;-41
2022/01/09 13:45:47;;;;;;;;;;;;;;;21.56;29.57;94414.22;10343263;28;2109;-44
2022/01/09 13:50:49;;;;;;;;;;;;;;;21.53;29.18;94409.59;10349333;28;1980;-44
2022/01/09 13:55:49;;;;;;;;;;;;;;;21.52;28.39;94408.03;10349245;28;2270;-41
2022/01/09 14:00:50;;;;;;;;;;;;;;;21.60;30.41;94415.94;10340399;28;2057;-43
2022/01/09 14:05:50;;;;;;;;;;;;;;;21.60;30.06;94417.81;10347132;28;2145;-47
2022/01/09 14:10:50;;;;;;;;;;;;;;;21.59;30.31;94416.25;10351443;28;2137;-47
2022/01/09 14:15:52;;;;;;;;;;;;;;;21.60;30.18;94420.44;10348759;28;1979;-48
2022/01/09 14:21:08;;;;;;;;;;;;;;;21.57;30.33;94418.44;10371078;28;1902;-47
2022/01/09 14:26:26;;;;;;;;;;;;;;;21.56;30.33;94417.66;10375187;28;1760;-45
2022/01/09 14:31:28;;;;;;;;;;;;;;;21.57;30.03;94413.16;10351545;28;1937;-43
2022/01/09 14:36:31;;;;;;;;;;;;;;;21.55;29.69;94420.59;10342918;28;1914;-45
2022/01/09 14:41:33;;;;;;;;;;;;;;;21.58;30.32;94419.97;10357485;28;1673;-43
2022/01/09 14:46:34;;;;;;;;;;;;;;;21.56;30.04;94419.50;10350360;28;1846;-43
2022/01/09 14:51:34;;;;;;;;;;;;;;;21.56;30.12;94430.06;10352397;28;1842;-43
2022/01/09 14:56:34;;;;;;;;;;;;;;;21.54;30.08;94419.03;10358096;28;2405;-46
2022/01/09 15:01:35;;;;;;;;;;;;;;;21.53;30.33;94425.41;10353612;28;1959;-46
2022/01/09 15:06:39;;;;;;;;;;;;;;;21.53;29.92;94430.69;10353297;28;1847;-49
2022/01/09 15:11:39;;;;;;;;;;;;;;;21.52;30.10;94429.13;10350203;28;1808;-42
2022/01/09 15:16:41;;;;;;;;;;;;;;;21.53;30.25;94443.88;10347753;28;1943;-48
2022/01/09 15:21:41;;;;;;;;;;;;;;;21.54;30.25;94451.47;10349539;28;1772;-43
2022/01/09 15:26:42;;;;;;;;;;;;;;;21.55;30.32;94457.53;10349411;28;1847;-49
2022/01/09 15:31:42;;;;;;;;;;;;;;;21.55;30.01;94468.06;10356234;28;1851;-46
2022/01/09 15:36:43;;;;;;;;;;;;;;;21.53;30.30;94471.03;10354886;28;1914;-50
2022/01/09 15:41:43;;;;;;;;;;;;;;;21.54;30.21;94474.41;10357031;28;1784;-45
2022/01/09 15:46:43;;;;;;;;;;;;;;;21.56;30.48;94480.16;10347198;28;1779;-47
2022/01/09 15:51:44;;;;;;;;;;;;;;;21.58;30.79;94485.91;10352870;28;1839;-43
2022/01/09 15:56:44;;;;;;;;;;;;;;;21.57;30.84;94487.00;10346571;28;3196;-44
2022/01/09 16:01:45;;;;;;;;;;;;;;;21.60;30.73;94491.63;10349584;28;1812;-44
2022/01/09 16:06:45;;;;;;;;;;;;;;;21.57;30.53;94492.28;10352001;28;1582;-43
2022/01/09 16:11:46;;;;;;;;;;;;;;;21.55;30.87;94494.44;10346692;28;1914;-43
2022/01/09 16:16:46;;;;;;;;;;;;;;;21.57;31.03;94495.69;10352290;28;1915;-46
2022/01/09 16:21:46;;;;;;;;;;;;;;;21.52;29.46;94498.47;10344896;28;1915;-43
2022/01/09 16:26:47;;;;;;;;;;;;;;;21.50;30.66;94492.72;10333471;28;1821;-41
2022/01/09 16:31:47;;;;;;;;;;;;;;;21.51;30.65;94498.78;10344758;28;1877;-47
2022/01/09 16:36:48;;;;;;;;;;;;;;;21.51;30.99;94501.41;10362711;28;1910;-50
2022/01/09 16:41:48;;;;;;;;;;;;;;;21.50;30.85;94498.00;10349819;28;1824;-45
2022/01/09 16:46:49;;;;;;;;;;;;;;;21.49;30.39;94506.22;10347253;28;1855;-45
2022/01/09 16:51:49;;;;;;;;;;;;;;;21.49;30.41;94507.00;10347451;28;1832;-47
2022/01/09 16:56:51;;;;;;;;;;;;;;;21.50;30.52;94510.41;10350247;28;1965;-47
2022/01/09 17:01:52;;;;;;;;;;;;;;;21.50;30.51;94518.31;10348713;28;1915;-48
2022/01/09 17:06:52;;;;;;;;;;;;;;;21.51;30.71;94530.41;10351030;28;1803;-43
2022/01/09 17:11:54;;;;;;;;;;;;;;;21.52;31.24;94529.31;10346516;28;1799;-48
2022/01/09 17:16:55;;;;;;;;;;;;;;;21.51;30.92;94531.19;10349641;28;1967;-47
2022/01/09 17:21:56;;;;;;;;;;;;;;;21.49;31.08;94532.59;10327465;28;1862;-44
2022/01/09 17:26:56;;;;;;;;;;;;;;;21.51;31.08;94540.97;10327439;28;1858;-49
2022/01/09 17:31:56;;;;;;;;;;;;;;;21.51;31.34;94548.88;10346402;28;2199;-44
2022/01/09 17:36:57;;;;;;;;;;;;;;;21.49;29.86;94549.19;10357135;28;1954;-44
2022/01/09 17:41:57;;;;;;;;;;;;;;;21.50;30.47;94556.00;10346042;28;1871;-47
2022/01/09 17:46:58;;;;;;;;;;;;;;;21.50;30.84;94556.00;10343792;28;1803;-46
2022/01/09 17:51:58;;;;;;;;;;;;;;;21.50;30.22;94576.31;10345900;28;1814;-43
2022/01/09 17:56:58;;;;;;;;;;;;;;;21.49;30.29;94575.56;10349457;28;1899;-50
2022/01/09 18:01:59;;;;;;;;;;;;;;;21.49;30.29;94582.69;10367792;28;1891;-42
2022/01/09 18:07:00;;;;;;;;;;;;;;;21.50;30.67;94592.13;10369077;28;2038;-39
2022/01/09 18:12:01;;;;;;;;;;;;;;;21.52;30.65;94605.78;10342473;28;1818;-52
2022/01/09 18:17:02;;;;;;;;;;;;;;;21.49;30.43;94611.69;10350075;28;1973;-45
2022/01/09 18:22:04;;;;;;;;;;;;;;;21.50;30.22;94619.28;10347709;28;1804;-47
2022/01/09 18:27:04;;;;;;;;;;;;;;;21.50;30.21;94627.19;10376472;28;1866;-48
2022/01/09 18:32:05;;;;;;;;;;;;;;;21.53;30.12;94628.44;10366685;28;1855;-47
2022/01/09 18:37:05;;;;;;;;;;;;;;;21.50;29.66;94636.94;10356908;28;1918;-49
2022/01/09 18:42:06;;;;;;;;;;;;;;;21.50;29.17;94642.22;10351423;28;1823;-47
2022/01/09 18:47:06;;;;;;;;;;;;;;;21.48;29.16;94642.53;10367952;28;1834;-47
2022/01/09 18:52:07;;;;;;;;;;;;;;;21.48;29.93;94641.75;10351864;28;1895;-50
2022/01/09 18:57:11;;;;;;;;;;;;;;;21.48;30.35;94647.03;10350165;28;1902;-47
2022/01/09 19:02:12;;;;;;;;;;;;;;;21.47;29.57;94659.47;10351468;28;1855;-50
2022/01/09 19:07:13;;;;;;;;;;;;;;;21.48;30.35;94657.56;10351208;28;1953;-46
2022/01/09 19:12:13;;;;;;;;;;;;;;;21.50;31.01;94673.88;10353519;28;1884;-46
2022/01/09 19:17:14;;;;;;;;;;;;;;;21.53;31.67;94673.28;10352580;28;1914;-44
2022/01/09 19:22:14;;;;;;;;;;;;;;;21.55;31.50;94671.09;10350281;28;1835;-43
2022/01/09 19:27:15;;;;;;;;;;;;;;;21.55;30.87;94668.47;10350394;28;1807;-40
2022/01/09 19:32:16;;;;;;;;;;;;;;;21.63;32.88;94670.34;10347732;28;1836;-40
2022/01/09 19:37:16;;;;;;;;;;;;;;;21.65;33.01;94674.25;10346744;28;1965;-41
2022/01/09 19:42:17;;;;;;;;;;;;;;;21.64;33.57;94677.16;10333835;28;1926;-40
2022/01/09 19:47:18;;;;;;;;;;;;;;;21.61;32.28;94689.13;10349047;28;1843;-42
2022/01/09 19:52:18;;;;;;;;;;;;;;;21.57;31.59;94697.94;10355669;28;1962;-39
2022/01/09 19:57:19;;;;;;;;;;;;;;;21.54;31.98;94696.69;10354673;28;2228;-45
2022/01/09 20:02:21;;;;;;;;;;;;;;;21.56;31.67;94706.94;10356548;28;1866;-40
2022/01/09 20:07:22;;;;;;;;;;;;;;;21.54;31.23;94706.44;10354638;28;1843;-44
2022/01/09 20:12:23;;;;;;;;;;;;;;;21.54;30.13;94711.72;10356375;28;1980;-40
2022/01/09 20:17:23;;;;;;;;;;;;;;;21.55;31.61;94715.94;10350459;28;1907;-40
2022/01/09 20:22:24;;;;;;;;;;;;;;;21.56;30.92;94717.47;10374588;23;2180;-60
2022/01/09 20:27:24;;;;;;;;;;;;;;;21.53;30.57;94712.81;10409026;28;2109;-59
2022/01/09 20:32:25;;;;;;;;;;;;;;;21.54;30.25;94720.41;10390593;28;1944;-60
2022/01/09 20:37:25;;;;;;;;;;;;;;;21.57;32.84;94719.81;10395742;28;1939;-59
2022/01/09 20:42:25;;;;;;;;;;;;;;;21.59;33.25;94724.78;10389593;28;1919;-59
2022/01/09 20:47:27;;;;;;;;;;;;;;;21.60;32.53;94728.97;10389712;28;1869;-58
2022/01/09 20:52:28;;;;;;;;;;;;;;;21.56;32.59;94726.16;10397170;28;1918;-59
2022/01/09 20:57:28;;;;;;;;;;;;;;;21.55;32.43;94732.53;10395111;28;2013;-60
2022/01/09 21:02:28;;;;;;;;;;;;;;;21.55;32.73;94747.56;10388863;28;1913;-58
2022/01/09 21:07:29;;;;;;;;;;;;;;;21.52;32.59;94741.03;10391697;28;2247;-60
2022/01/09 21:12:32;;;;;;;;;;;;;;;21.52;32.31;94735.78;10394388;28;2358;-59
2022/01/09 21:17:33;;;;;;;;;;;;;;;21.51;32.06;94744.78;10391396;28;2127;-59
2022/01/09 21:22:34;;;;;;;;;;;;;;;21.52;32.20;94748.16;10390747;28;2348;-61
2022/01/09 21:27:34;;;;;;;;;;;;;;;21.51;31.82;94752.69;10388744;28;2176;-60
2022/01/09 21:32:35;;;;;;;;;;;;;;;21.49;31.60;94762.75;10402328;28;2097;-60
2022/01/09 21:37:35;;;;;;;;;;;;;;;21.48;31.65;94763.81;10387652;28;1926;-60
2022/01/09 21:42:36;;;;;;;;;;;;;;;21.47;31.50;94770.19;10395449;28;2029;-58
2022/01/09 21:47:36;;;;;;;;;;;;;;;21.49;30.79;94775.16;10392895;28;2094;-59
2022/01/09 21:52:36;;;;;;;;;;;;;;;21.46;31.36;94776.53;10390088;28;1883;-58
2022/01/09 21:57:37;;;;;;;;;;;;;;;21.46;31.19;94779.16;10376702;28;2080;-60
2022/01/09 22:02:37;;;;;;;;;;;;;;;21.47;31.09;94785.22;10389156;28;1921;-60
2022/01/09 22:07:38;;;;;;;;;;;;;;;21.48;31.14;94789.41;10391876;28;1793;-59
2022/01/09 22:12:38;;;;;;;;;;;;;;;21.45;30.88;94788.13;10394247;28;1962;-60
2022/01/09 22:17:39;;;;;;;;;;;;;;;21.46;30.99;94791.56;10387702;28;1906;-60
2022/01/09 22:22:39;;;;;;;;;;;;;;;21.45;30.75;94800.56;10393743;28;1836;-59
2022/01/09 22:27:39;;;;;;;;;;;;;;;21.45;30.75;94805.84;10385934;28;1962;-60
2022/01/09 22:32:40;;;;;;;;;;;;;;;21.42;30.86;94817.75;10390289;28;1887;-59
2022/01/09 22:37:41;;;;;;;;;;;;;;;21.42;30.76;94811.69;10399345;28;1918;-58
2022/01/09 22:42:41;;;;;;;;;;;;;;;21.43;30.59;94805.38;10396624;28;1836;-58
2022/01/09 22:47:42;;;;;;;;;;;;;;;21.43;30.61;94819.31;10395690;28;1852;-59
2022/01/09 22:52:42;;;;;;;;;;;;;;;21.44;30.66;94820.09;10390685;28;1958;-58
2022/01/09 22:57:43;;;;;;;;;;;;;;;21.43;30.36;94829.09;10397455;28;1971;-60
2022/01/09 23:02:43;;;;;;;;;;;;;;;21.44;30.33;94841.19;10397590;28;1925;-60
2022/01/09 23:07:45;;;;;;;;;;;;;;;21.43;30.11;94840.41;10397571;28;1856;-59
2022/01/09 23:12:45;;;;;;;;;;;;;;;21.43;30.37;94850.94;10395580;28;2267;-59
2022/01/09 23:17:46;;;;;;;;;;;;;;;21.42;30.23;94853.88;10394070;28;1967;-56
2022/01/09 23:22:46;;;;;;;;;;;;;;;21.43;30.29;94860.72;10398494;28;1781;-58
2022/01/09 23:27:47;;;;;;;;;;;;;;;21.44;30.10;94857.00;10399761;28;1848;-60
2022/01/09 23:32:47;;;;;;;;;;;;;;;21.42;30.04;94859.94;10394092;28;1793;-59
2022/01/09 23:37:48;;;;;;;;;;;;;;;21.44;29.76;94870.19;10394225;28;1975;-60
2022/01/09 23:42:48;;;;;;;;;;;;;;;21.42;29.78;94859.94;10394600;28;1749;-59
2022/01/09 23:48:23;;;;;;;;;;;;;;;21.42;29.87;94870.50;10392564;28;1794;-59
2022/01/09 23:53:24;;;;;;;;;;;;;;;21.42;29.96;94874.97;10394882;28;1817;-59
2022/01/09 23:58:25;;;;;;;;;;;;;;;21.41;29.90;94874.19;10395397;28;2013;-58
